Weather at Rawlinna Airport

Public forecast

Using degrees Celsius for public forecast. Weather courtesy of forecast.io.

Closest aviation weather report (METAR) to Rawlinna Airport

Closest report is Forrest Airport, 143.9 nm (266.4 km) E.

2024/03/03 10:00 (retrieved 36 minutes ago)

YFRT 031000Z AUTO 13023KT 9999 // NCD 25/15 Q1014 RF000/0000

Closest aviation forecast (TAF) to Rawlinna Airport

Closest forecast is Forrest Airport, 143.9 nm (266.4 km) E.

2024/03/03 07:00 Ammendment (retrieved 4 hours ago)

TAF AMD YFRT 030730Z 0307/0320 13021KT CAVOK FM031300 10014KT CAVOK